Portada
METAR-TAF:

METAR-TAF

Aeroports :

Mangalore, Índia

latitud: 12-55N, longitud: 074-53E, altitud: 102 m

Observació

L'informe es va fer fa 12 minuts, a les 02:30 UTC
Vent calma
Temperatura 26°C
Humitat 84%
Pressió 1010 hPa
Visibilitat: 2000 m
Escasses núvols a una alçada de 1500 ft
boirina

METAR: VOML 030230Z 00000KT 2000 BR FEW015 26/23 Q1010 BECMG 3000 BR

Hora: 08:12 (02:42 UTC)

Pronòstic

L'informe es va fer fa 42 minuts, a les 02:00 UTC
Pronòstic vàlid del 03 a les 03 UTC al 03 a les 12 UTC
Vent 5 kt del Est
Visibilitat: 3000 m
Escasses núvols a una alçada de 500 ft
Núvols disperses a una alçada de 1200 ft
boirina
Evolucionant progressivament
l' 03 a les 05 UTC al 03 a les 06 UTC
Vent 10 kt del Oest
Visibilitat: 6000 m
Escasses núvols a una alçada de 1500 ft

TAF: VOML 030200Z 0303/0312 09005KT 3000 BR FEW005 SCT012 BECMG 0305/0306 27010KT 6000 FEW015

Observacions i pronòstics meteorològics de més de 4000 aeroports (METAR i TAF).

Les estacions disponibles són els punts grocs i vermells al mapa.

Posi el ratolí al punt desitjat per veure el nom de l'estació.

Feu clic per veure les observacions i els pronòstics meteorològics.

Per canviar el mapa: feu clic els botons verds amb una creu de color negre per apropar; al botó verd amb un guió per allunyar la imatge; o en les fletxes verdes per a mapes adjacents.


METAR-TAF: